createdAt,value
2022-10-12T00:01:44.015Z,98.20
2022-10-12T00:04:46.982Z,98.20
2022-10-12T00:07:49.852Z,98.30
2022-10-12T00:10:52.722Z,98.20
2022-10-12T00:13:57.802Z,98.40
2022-10-12T00:17:00.853Z,98.50
2022-10-12T00:20:03.891Z,98.50
2022-10-12T00:23:07.806Z,98.40
2022-10-12T00:26:13.344Z,98.40
2022-10-12T00:29:17.621Z,98.30
2022-10-12T00:32:20.642Z,98.20
2022-10-12T00:35:23.541Z,98.10
2022-10-12T00:38:26.367Z,98.00
2022-10-12T00:41:32.377Z,98.00
2022-10-12T00:44:42.195Z,98.10
2022-10-12T00:47:50.888Z,98.10
2022-10-12T00:50:55.876Z,98.20
2022-10-12T00:54:03.172Z,98.20
2022-10-12T00:57:07.132Z,98.10
2022-10-12T01:00:12.995Z,98.20
2022-10-12T01:03:19.498Z,98.10
2022-10-12T01:06:22.470Z,98.00
2022-10-12T01:09:25.488Z,97.90
2022-10-12T01:12:29.152Z,97.80
2022-10-12T01:15:37.641Z,97.90
2022-10-12T01:18:46.800Z,98.00
2022-10-12T01:21:54.456Z,98.10
2022-10-12T01:25:08.577Z,98.30
2022-10-12T01:28:19.535Z,98.40
2022-10-12T01:31:32.761Z,98.40
2022-10-12T01:34:44.660Z,98.80
2022-10-12T01:37:54.253Z,98.90
2022-10-12T01:41:02.040Z,98.80
2022-10-12T01:44:05.061Z,99.10
2022-10-12T01:47:09.388Z,99.30
2022-10-12T01:50:15.284Z,99.20
2022-10-12T01:53:28.861Z,99.00
2022-10-12T01:56:40.261Z,99.10
2022-10-12T01:59:54.304Z,99.20
2022-10-12T02:03:08.039Z,99.30
2022-10-12T02:06:14.652Z,99.10
2022-10-12T02:09:22.800Z,99.00
2022-10-12T02:12:29.812Z,99.00
2022-10-12T02:15:34.504Z,98.90
2022-10-12T02:18:42.175Z,99.00
2022-10-12T02:21:47.681Z,99.10
2022-10-12T02:24:53.413Z,98.90
2022-10-12T02:28:00.842Z,99.10
2022-10-12T02:31:11.285Z,99.10
2022-10-12T02:34:19.287Z,99.20
2022-10-12T02:37:33.561Z,99.00
2022-10-12T02:40:39.763Z,99.20
2022-10-12T02:43:46.291Z,99.30
2022-10-12T02:46:50.591Z,99.10
2022-10-12T02:49:56.736Z,99.30
2022-10-12T02:53:00.410Z,99.30
2022-10-12T02:56:05.501Z,99.60
2022-10-12T02:59:08.372Z,99.60
2022-10-12T03:02:11.388Z,99.40
2022-10-12T03:05:15.707Z,99.30
2022-10-12T03:08:18.568Z,99.30
2022-10-12T03:11:21.442Z,99.50
2022-10-12T03:14:26.798Z,99.30
2022-10-12T03:17:29.710Z,99.30
2022-10-12T03:20:34.178Z,99.40
2022-10-12T03:23:37.067Z,99.30
2022-10-12T03:26:40.393Z,99.40
2022-10-12T03:29:43.245Z,99.50
2022-10-12T03:32:46.123Z,99.60
2022-10-12T03:35:50.494Z,99.70
2022-10-12T03:38:53.386Z,99.70
2022-10-12T03:41:56.274Z,99.60
2022-10-12T03:44:59.126Z,99.70
2022-10-12T03:48:04.980Z,99.70
2022-10-12T03:51:09.580Z,99.90
2022-10-12T03:54:12.493Z,99.80
2022-10-12T03:57:15.362Z,99.90
2022-10-12T04:00:18.620Z,99.90
2022-10-12T04:03:21.725Z,99.90
2022-10-12T04:06:25.985Z,99.90
2022-10-12T04:09:28.845Z,99.90
2022-10-12T04:12:31.747Z,99.90
2022-10-12T04:15:34.636Z,99.90
2022-10-12T04:18:37.545Z,99.90
2022-10-12T04:21:41.948Z,99.90
2022-10-12T04:24:44.816Z,99.90
2022-10-12T04:27:47.735Z,99.90
2022-10-12T04:30:50.579Z,99.90
2022-10-12T04:33:56.771Z,99.90
2022-10-12T04:37:00.982Z,99.90
2022-10-12T04:40:04.207Z,99.90
2022-10-12T04:43:07.451Z,99.90
2022-10-12T04:46:10.376Z,99.90
2022-10-12T04:49:13.399Z,99.90
2022-10-12T04:52:17.729Z,99.90
2022-10-12T04:55:20.605Z,99.90
2022-10-12T04:58:23.474Z,99.90
2022-10-12T05:01:26.475Z,99.90
2022-10-12T05:04:29.478Z,99.90
2022-10-12T05:07:33.835Z,99.90
2022-10-12T05:10:36.676Z,99.90
2022-10-12T05:13:39.690Z,99.90
2022-10-12T05:16:42.636Z,99.90
2022-10-12T05:19:45.511Z,99.90
2022-10-12T05:22:49.776Z,99.90
2022-10-12T05:25:52.634Z,99.90
2022-10-12T05:28:55.542Z,99.90
2022-10-12T05:31:58.418Z,99.90
2022-10-12T05:35:01.293Z,99.90
2022-10-12T05:38:05.758Z,99.90
2022-10-12T05:41:08.636Z,99.90
2022-10-12T05:44:11.499Z,99.90
2022-10-12T05:47:14.355Z,99.90
2022-10-12T05:50:17.413Z,99.90
2022-10-12T05:53:21.872Z,99.90
2022-10-12T05:56:24.854Z,99.90
2022-10-12T05:59:27.778Z,99.90
2022-10-12T06:02:30.658Z,99.90
2022-10-12T06:05:33.532Z,99.90
2022-10-12T06:08:37.732Z,99.90
2022-10-12T06:11:40.676Z,99.90
2022-10-12T06:14:43.587Z,99.90
2022-10-12T06:17:46.729Z,99.90
2022-10-12T06:20:56.540Z,99.90
2022-10-12T06:24:13.516Z,99.90
2022-10-12T06:27:19.694Z,99.90
2022-10-12T06:30:22.592Z,99.90
2022-10-12T06:33:25.942Z,99.90
2022-10-12T06:36:28.871Z,99.90
2022-10-12T06:39:33.212Z,99.90
2022-10-12T06:42:36.305Z,99.90
2022-10-12T06:45:41.009Z,99.90
2022-10-12T06:48:43.879Z,99.90
2022-10-12T06:51:46.791Z,99.90
2022-10-12T06:54:51.105Z,99.90
2022-10-12T06:57:53.997Z,99.90
2022-10-12T07:00:56.896Z,99.90
2022-10-12T07:04:00.930Z,99.90
2022-10-12T07:07:04.143Z,99.90
2022-10-12T07:10:09.124Z,99.90
2022-10-12T07:13:11.998Z,99.90
2022-10-12T07:16:14.897Z,99.90
2022-10-12T07:19:17.760Z,99.90
2022-10-12T07:22:20.666Z,99.90
2022-10-12T07:25:25.081Z,99.90
2022-10-12T07:28:28.585Z,99.90
2022-10-12T07:31:31.711Z,99.90
2022-10-12T07:34:35.096Z,99.90
2022-10-12T07:37:38.254Z,99.90
2022-10-12T07:40:42.765Z,99.90
2022-10-12T07:43:45.662Z,99.90
2022-10-12T07:46:48.520Z,99.90
2022-10-12T07:49:51.377Z,99.90
2022-10-12T07:52:54.260Z,99.90
2022-10-12T07:56:02.476Z,99.90
2022-10-12T07:59:05.449Z,99.90
2022-10-12T08:02:08.353Z,99.90
2022-10-12T08:05:11.375Z,99.90
2022-10-12T08:08:14.308Z,99.90
2022-10-12T08:11:20.011Z,99.90
2022-10-12T08:14:23.207Z,99.90
2022-10-12T08:17:26.100Z,99.90
2022-10-12T08:20:29.008Z,99.90
2022-10-12T08:23:31.919Z,99.90
2022-10-12T08:26:36.457Z,99.90
2022-10-12T08:29:40.361Z,99.90
2022-10-12T08:32:43.615Z,99.90
2022-10-12T08:35:47.681Z,99.90
2022-10-12T08:38:53.994Z,99.90
2022-10-12T08:42:08.861Z,99.90
2022-10-12T08:45:30.617Z,99.90
2022-10-12T08:48:39.326Z,99.90
2022-10-12T08:51:50.024Z,99.90
2022-10-12T08:54:53.775Z,99.90
2022-10-12T08:57:58.679Z,99.90
2022-10-12T09:01:15.702Z,99.90
2022-10-12T09:04:35.235Z,99.90
2022-10-12T09:07:43.042Z,99.90
2022-10-12T09:10:48.525Z,99.90
2022-10-12T09:13:59.349Z,99.90
2022-10-12T09:17:04.007Z,99.90
2022-10-12T09:20:17.224Z,99.90
2022-10-12T09:23:26.207Z,99.90
2022-10-12T09:26:36.096Z,99.90
2022-10-12T09:29:40.411Z,99.90
2022-10-12T09:33:07.849Z,99.90
2022-10-12T09:36:13.866Z,99.90
2022-10-12T09:39:20.288Z,99.90
2022-10-12T09:42:23.460Z,99.90
2022-10-12T09:45:29.713Z,99.90
2022-10-12T09:48:32.657Z,99.90
2022-10-12T09:51:36.337Z,99.90
2022-10-12T09:54:42.821Z,99.90
2022-10-12T09:57:53.718Z,99.90
2022-10-12T10:01:16.678Z,99.90
2022-10-12T10:04:26.667Z,99.90
2022-10-12T10:07:33.256Z,99.90
2022-10-12T10:10:36.161Z,99.90
2022-10-12T10:13:39.459Z,99.90
2022-10-12T10:16:51.226Z,99.00
2022-10-12T10:19:55.574Z,99.50
2022-10-12T10:22:59.836Z,99.80
2022-10-12T10:26:07.281Z,99.50
2022-10-12T10:29:24.739Z,99.20
2022-10-12T10:32:30.007Z,99.30
2022-10-12T10:35:33.208Z,98.90
2022-10-12T10:38:55.283Z,99.20
2022-10-12T10:42:10.409Z,99.30
2022-10-12T10:45:25.378Z,98.90
2022-10-12T10:48:32.299Z,98.70
2022-10-12T10:51:49.706Z,99.20
2022-10-12T10:55:16.776Z,99.30
2022-10-12T10:58:30.215Z,98.40
2022-10-12T11:01:38.774Z,98.60
2022-10-12T11:04:46.343Z,98.50
2022-10-12T11:07:52.286Z,98.60
2022-10-12T11:10:59.685Z,99.30
2022-10-12T11:14:08.062Z,99.30
2022-10-12T11:17:18.120Z,99.20
2022-10-12T11:20:35.316Z,98.90
2022-10-12T11:23:45.160Z,98.40
2022-10-12T11:26:52.240Z,98.10
2022-10-12T11:30:09.257Z,98.00
2022-10-12T11:33:16.434Z,98.30
2022-10-12T11:36:23.752Z,98.10
2022-10-12T11:39:33.793Z,98.90
2022-10-12T11:42:43.405Z,98.00
2022-10-12T11:45:49.780Z,98.30
2022-10-12T11:48:57.331Z,98.10
2022-10-12T11:52:06.715Z,98.20
2022-10-12T11:55:26.289Z,98.10
2022-10-12T11:58:55.807Z,98.40
2022-10-12T12:02:03.981Z,98.30
2022-10-12T12:05:16.237Z,98.30
2022-10-12T12:08:44.967Z,97.90
2022-10-12T12:11:48.038Z,97.90
2022-10-12T12:15:06.215Z,98.30
2022-10-12T12:18:13.548Z,97.90
2022-10-12T12:21:16.594Z,97.90
2022-10-12T12:24:20.920Z,98.10
2022-10-12T12:27:29.624Z,97.80
2022-10-12T12:30:37.105Z,97.80
2022-10-12T12:33:42.490Z,97.60
2022-10-12T12:36:47.813Z,97.50
2022-10-12T12:39:57.584Z,98.00
2022-10-12T12:43:35.461Z,97.80
2022-10-12T12:47:44.133Z,97.70
2022-10-12T12:50:42.688Z,97.30
2022-10-12T12:53:49.528Z,97.40
2022-10-12T12:57:12.721Z,97.20
2022-10-12T13:00:21.471Z,97.70
2022-10-12T13:04:15.974Z,97.50
2022-10-12T13:07:45.055Z,97.30
2022-10-12T13:10:58.959Z,97.50
2022-10-12T13:14:14.878Z,97.40
2022-10-12T13:17:36.271Z,97.60
2022-10-12T13:20:49.363Z,97.50
2022-10-12T13:23:57.756Z,97.50
2022-10-12T13:27:07.258Z,97.40
2022-10-12T13:30:20.367Z,97.20
2022-10-12T13:33:32.116Z,97.10
2022-10-12T13:36:47.204Z,97.80
2022-10-12T13:39:52.380Z,97.30
2022-10-12T13:42:55.405Z,97.40
2022-10-12T13:45:59.647Z,97.00
2022-10-12T13:49:03.531Z,96.80
2022-10-12T13:52:21.661Z,96.80
2022-10-12T13:55:26.657Z,97.00
2022-10-12T13:58:33.776Z,97.10
2022-10-12T14:01:49.143Z,96.40
2022-10-12T14:04:54.981Z,96.70
2022-10-12T14:08:03.350Z,96.30
2022-10-12T14:11:06.978Z,96.70
2022-10-12T14:14:20.244Z,97.00
2022-10-12T14:17:24.925Z,97.00
2022-10-12T14:20:30.581Z,97.30
2022-10-12T14:23:33.490Z,97.10
2022-10-12T14:26:39.877Z,97.00
2022-10-12T14:29:44.899Z,96.90
2022-10-12T14:32:50.345Z,96.80
2022-10-12T14:36:12.092Z,96.80
2022-10-12T14:39:15.441Z,96.70
2022-10-12T14:42:21.937Z,96.30
2022-10-12T14:45:26.519Z,96.70
2022-10-12T14:48:30.738Z,96.80
2022-10-12T14:51:34.425Z,97.20
2022-10-12T14:54:37.272Z,96.70
2022-10-12T14:57:40.121Z,96.80
2022-10-12T15:00:44.570Z,96.40
2022-10-12T15:03:48.904Z,96.40
2022-10-12T15:06:51.755Z,96.00
2022-10-12T15:09:54.965Z,96.10
2022-10-12T15:12:57.893Z,96.50
2022-10-12T15:16:02.644Z,96.60
2022-10-12T15:19:06.870Z,96.40
2022-10-12T15:22:11.357Z,96.40
2022-10-12T15:25:22.216Z,96.70
2022-10-12T15:28:25.302Z,96.50
2022-10-12T15:31:28.208Z,96.50
2022-10-12T15:34:32.520Z,96.50
2022-10-12T15:37:35.388Z,96.30
2022-10-12T15:40:39.856Z,96.20
2022-10-12T15:43:42.772Z,96.40
2022-10-12T15:46:46.325Z,96.90
2022-10-12T15:49:50.535Z,96.90
2022-10-12T15:52:54.364Z,96.80
2022-10-12T15:55:57.497Z,99.90
2022-10-12T15:59:04.269Z,97.00
2022-10-12T16:02:11.988Z,96.40
2022-10-12T16:05:20.149Z,96.40
2022-10-12T16:08:22.975Z,96.50
2022-10-12T16:11:25.941Z,96.60
2022-10-12T16:14:28.765Z,96.90
2022-10-12T16:17:31.690Z,96.90
2022-10-12T16:20:38.183Z,97.00
2022-10-12T16:23:41.605Z,96.60
2022-10-12T16:26:47.209Z,97.00
2022-10-12T16:29:50.145Z,96.80
2022-10-12T16:32:53.463Z,96.80
2022-10-12T16:35:57.677Z,97.00
2022-10-12T16:39:00.537Z,97.00
2022-10-12T16:42:03.688Z,97.20
2022-10-12T16:45:07.781Z,97.00
2022-10-12T16:48:10.689Z,96.90
2022-10-12T16:51:15.048Z,96.80
2022-10-12T16:54:17.913Z,97.00
2022-10-12T16:57:21.369Z,97.00
2022-10-12T17:00:24.301Z,97.00
2022-10-12T17:03:27.407Z,97.00
2022-10-12T17:06:31.943Z,97.20
2022-10-12T17:09:34.844Z,97.20
2022-10-12T17:12:37.822Z,97.00
2022-10-12T17:15:42.544Z,97.10
2022-10-12T17:18:45.415Z,97.10
2022-10-12T17:21:49.890Z,97.10
2022-10-12T17:24:52.817Z,97.10
2022-10-12T17:27:55.741Z,97.10
2022-10-12T17:30:58.699Z,97.20
2022-10-12T17:34:01.820Z,97.30
2022-10-12T17:37:06.907Z,97.30
2022-10-12T17:40:11.350Z,97.10
2022-10-12T17:43:14.260Z,97.00
2022-10-12T17:46:22.271Z,97.50
2022-10-12T17:49:27.464Z,97.40
2022-10-12T17:52:31.691Z,97.40
2022-10-12T17:55:48.239Z,97.60
2022-10-12T17:58:55.346Z,97.50
2022-10-12T18:01:58.209Z,97.40
2022-10-12T18:05:01.149Z,97.50
2022-10-12T18:08:05.782Z,97.50
2022-10-12T18:11:08.986Z,97.60
2022-10-12T18:14:13.053Z,97.50
2022-10-12T18:17:15.970Z,97.70
2022-10-12T18:20:19.435Z,97.60
2022-10-12T18:23:23.683Z,97.50
2022-10-12T18:26:27.844Z,97.40
2022-10-12T18:29:30.920Z,97.50
2022-10-12T18:32:33.868Z,97.50
2022-10-12T18:35:36.845Z,97.20
2022-10-12T18:38:41.314Z,97.10
2022-10-12T18:41:44.489Z,97.20
2022-10-12T18:44:47.353Z,97.30
2022-10-12T18:47:50.393Z,97.40
2022-10-12T18:50:53.549Z,97.40
2022-10-12T18:53:58.657Z,97.40
2022-10-12T18:57:02.494Z,97.40
2022-10-12T19:00:06.859Z,97.40
2022-10-12T19:03:12.468Z,97.60
2022-10-12T19:06:17.836Z,97.50
2022-10-12T19:09:22.460Z,97.50
2022-10-12T19:12:25.384Z,97.40
2022-10-12T19:15:28.572Z,97.30
2022-10-12T19:18:31.769Z,97.10
2022-10-12T19:21:35.272Z,97.00
2022-10-12T19:24:39.462Z,96.80
2022-10-12T19:27:42.361Z,96.70
2022-10-12T19:30:45.265Z,96.50
2022-10-12T19:33:48.462Z,96.40
2022-10-12T19:36:51.721Z,96.30
2022-10-12T19:39:55.934Z,96.30
2022-10-12T19:42:58.831Z,96.10
2022-10-12T19:46:04.276Z,96.10
2022-10-12T19:49:07.337Z,96.00
2022-10-12T19:52:10.212Z,95.90
2022-10-12T19:55:14.542Z,95.90
2022-10-12T19:58:17.471Z,95.90
2022-10-12T20:01:22.603Z,95.80
2022-10-12T20:04:25.495Z,95.70
2022-10-12T20:07:28.349Z,95.70
2022-10-12T20:10:32.565Z,95.70
2022-10-12T20:13:35.920Z,95.60
2022-10-12T20:16:39.063Z,95.60
2022-10-12T20:19:41.979Z,95.90
2022-10-12T20:22:44.854Z,95.60
2022-10-12T20:25:51.097Z,95.50
2022-10-12T20:28:55.451Z,95.50
2022-10-12T20:31:58.361Z,95.50
2022-10-12T20:35:01.823Z,95.80
2022-10-12T20:38:05.209Z,95.30
2022-10-12T20:41:12.316Z,95.10
2022-10-12T20:44:15.700Z,95.10
2022-10-12T20:47:18.947Z,95.20
2022-10-12T20:50:22.001Z,95.10
2022-10-12T20:53:25.338Z,95.20
2022-10-12T20:56:29.924Z,94.90
2022-10-12T20:59:34.552Z,95.10
2022-10-12T21:02:38.460Z,95.00
2022-10-12T21:05:41.323Z,95.00
2022-10-12T21:08:44.701Z,94.90
2022-10-12T21:11:48.940Z,94.90
2022-10-12T21:14:51.896Z,94.90
2022-10-12T21:17:54.739Z,94.80
2022-10-12T21:20:58.883Z,94.80
2022-10-12T21:24:03.780Z,94.90
2022-10-12T21:27:08.220Z,94.90
2022-10-12T21:30:11.791Z,94.60
2022-10-12T21:33:15.216Z,94.70
2022-10-12T21:36:19.824Z,94.70
2022-10-12T21:39:22.692Z,94.70
2022-10-12T21:42:28.968Z,94.70
2022-10-12T21:45:31.891Z,94.70
2022-10-12T21:48:35.430Z,94.80
2022-10-12T21:51:38.710Z,94.70
2022-10-12T21:54:41.604Z,94.70
2022-10-12T21:57:45.967Z,94.80
2022-10-12T22:00:49.006Z,94.90
2022-10-12T22:03:54.624Z,94.80
2022-10-12T22:07:00.533Z,94.70
2022-10-12T22:10:03.848Z,94.50
2022-10-12T22:13:08.307Z,94.40
2022-10-12T22:16:14.504Z,94.40
2022-10-12T22:19:19.452Z,94.50
2022-10-12T22:22:22.341Z,94.50
2022-10-12T22:25:25.239Z,94.70
2022-10-12T22:28:29.555Z,94.60
2022-10-12T22:31:32.849Z,94.60
2022-10-12T22:34:35.701Z,94.80
2022-10-12T22:37:38.760Z,95.20
2022-10-12T22:40:41.599Z,96.00
2022-10-12T22:43:46.035Z,95.40
2022-10-12T22:46:48.911Z,94.50
2022-10-12T22:49:51.908Z,94.60
2022-10-12T22:52:54.813Z,94.70
2022-10-12T22:56:00.821Z,94.60
2022-10-12T22:59:07.146Z,94.50
2022-10-12T23:02:10.039Z,94.40
2022-10-12T23:05:12.901Z,94.40
2022-10-12T23:08:16.274Z,94.50
2022-10-12T23:11:21.039Z,94.50
2022-10-12T23:14:25.293Z,94.30
2022-10-12T23:17:28.409Z,94.40
2022-10-12T23:20:31.271Z,94.60
2022-10-12T23:23:35.270Z,94.60
2022-10-12T23:26:38.110Z,94.70
2022-10-12T23:29:42.431Z,94.60
2022-10-12T23:32:45.267Z,94.50
2022-10-12T23:35:56.257Z,94.50
2022-10-12T23:39:01.101Z,94.50
2022-10-12T23:42:03.952Z,94.30
2022-10-12T23:45:08.750Z,94.40
2022-10-12T23:48:11.608Z,94.50
2022-10-12T23:51:14.584Z,94.40
2022-10-12T23:54:17.449Z,94.40
